Time;durP1;ratioP1;P1;durP2;ratioP2;P2;SDS_P1;SDS_P2;PMS_P1;PMS_P2;Temp;Humidity;BMP_temperature;BMP_pressure;BME280_temperature;BME280_humidity;BME280_pressure;Samples;Min_cycle;Max_cycle;Signal;HPM_P1;HPM_P2
2023/12/03 00:00:49;;;;;;;49.63;22.15;;;;;;;0.14;100.00;100739.50;5002098;28;20032;-72
2023/12/03 00:03:14;;;;;;;52.38;22.52;;;;;;;0.16;100.00;100731.88;5016920;28;20017;-72
2023/12/03 00:05:39;;;;;;;48.75;22.55;;;;;;;0.17;100.00;100730.84;4997194;28;20414;-72
2023/12/03 00:08:05;;;;;;;56.08;22.52;;;;;;;0.17;100.00;100733.59;5003417;28;20036;-72
2023/12/03 00:10:31;;;;;;;47.88;21.20;;;;;;;0.17;100.00;100727.28;5003577;28;20099;-72
2023/12/03 00:12:56;;;;;;;53.13;22.77;;;;;;;0.18;100.00;100718.84;5003602;28;20056;-72
2023/12/03 00:15:22;;;;;;;49.55;22.30;;;;;;;0.18;100.00;100702.47;4999991;28;20133;-72
2023/12/03 00:17:48;;;;;;;47.67;22.08;;;;;;;0.17;100.00;100698.06;5018477;28;20073;-72
2023/12/03 00:20:14;;;;;;;45.78;20.40;;;;;;;0.16;100.00;100712.78;5036163;28;20037;-72
2023/12/03 00:22:39;;;;;;;50.53;21.40;;;;;;;0.18;100.00;100701.63;5028099;28;20100;-72
2023/12/03 00:25:06;;;;;;;44.72;20.85;;;;;;;0.19;100.00;100698.66;4999760;28;20029;-72
2023/12/03 00:27:32;;;;;;;46.97;22.10;;;;;;;0.20;100.00;100700.38;5019315;28;20025;-72
2023/12/03 00:29:57;;;;;;;42.88;19.73;;;;;;;0.20;100.00;100692.16;5033127;28;20032;-72
2023/12/03 00:32:23;;;;;;;53.90;22.27;;;;;;;0.21;100.00;100693.81;5018652;28;20032;-72
2023/12/03 00:34:48;;;;;;;48.35;20.88;;;;;;;0.22;100.00;100691.94;5019473;28;20033;-72
2023/12/03 00:37:14;;;;;;;44.13;19.30;;;;;;;0.24;100.00;100684.34;5003237;28;20091;-72
2023/12/03 00:39:39;;;;;;;44.00;20.75;;;;;;;0.23;100.00;100688.16;5035624;28;20448;-72
2023/12/03 00:42:05;;;;;;;45.55;20.95;;;;;;;0.25;100.00;100688.75;5034922;28;20026;-72
2023/12/03 00:44:30;;;;;;;42.53;20.10;;;;;;;0.25;100.00;100685.19;5019639;28;20393;-72
2023/12/03 00:46:55;;;;;;;41.40;19.45;;;;;;;0.25;100.00;100685.19;5035677;28;20423;-72
2023/12/03 00:49:21;;;;;;;46.88;20.45;;;;;;;0.26;100.00;100678.69;5019392;28;20092;-72
2023/12/03 00:51:46;;;;;;;43.97;20.05;;;;;;;0.26;100.00;100687.72;5018974;28;20120;-72
2023/12/03 00:54:12;;;;;;;43.60;19.10;;;;;;;0.27;100.00;100678.44;5035341;28;20432;-72
2023/12/03 00:56:37;;;;;;;45.13;20.83;;;;;;;0.27;100.00;100683.06;5002544;28;20030;-72
2023/12/03 00:59:03;;;;;;;45.05;20.83;;;;;;;0.26;100.00;100684.97;5018984;28;20033;-72
2023/12/03 01:01:28;;;;;;;44.92;20.55;;;;;;;0.27;100.00;100678.44;5001830;28;20333;-72
2023/12/03 01:03:54;;;;;;;40.88;19.40;;;;;;;0.28;100.00;100688.34;4994769;28;20072;-72
2023/12/03 01:06:19;;;;;;;48.60;20.95;;;;;;;0.28;100.00;100679.28;4995570;28;20515;-72
2023/12/03 01:08:45;;;;;;;47.70;21.27;;;;;;;0.27;100.00;100664.78;5018792;28;20390;-73
2023/12/03 01:11:11;;;;;;;44.63;19.77;;;;;;;0.27;100.00;100656.59;5033861;28;20094;-72
2023/12/03 01:13:36;;;;;;;46.40;21.35;;;;;;;0.28;100.00;100657.41;5035343;28;20031;-72
2023/12/03 01:16:03;;;;;;;45.40;20.92;;;;;;;0.28;100.00;100649.22;5002311;28;20038;-73
2023/12/03 01:18:28;;;;;;;44.22;21.20;;;;;;;0.28;100.00;100652.81;5002371;28;20116;-72
2023/12/03 01:20:54;;;;;;;45.40;20.38;;;;;;;0.29;100.00;100653.66;5001014;28;20030;-72
2023/12/03 01:23:19;;;;;;;46.90;20.98;;;;;;;0.28;100.00;100646.50;5042464;28;20030;-72
2023/12/03 01:25:44;;;;;;;46.13;22.42;;;;;;;0.28;100.00;100644.63;5035059;28;20029;-73
2023/12/03 01:28:10;;;;;;;45.17;20.42;;;;;;;0.28;100.00;100635.56;5017994;28;20079;-73
2023/12/03 01:30:35;;;;;;;46.10;21.83;;;;;;;0.29;100.00;100642.72;5018832;28;20033;-73
2023/12/03 01:33:01;;;;;;;46.63;21.35;;;;;;;0.30;100.00;100641.66;5035134;28;20037;-72
2023/12/03 01:35:26;;;;;;;47.13;21.17;;;;;;;0.28;100.00;100646.50;5034938;28;20037;-72
2023/12/03 01:37:52;;;;;;;44.42;20.77;;;;;;;0.29;100.00;100629.91;5001726;28;20026;-72
2023/12/03 01:40:17;;;;;;;48.50;21.10;;;;;;;0.31;100.00;100629.69;4997458;28;20041;-72
2023/12/03 01:42:43;;;;;;;52.00;22.13;;;;;;;0.29;100.00;100626.34;4982709;28;20108;-73
2023/12/03 01:45:08;;;;;;;43.53;20.95;;;;;;;0.28;100.00;100625.50;5013841;28;20029;-72
2023/12/03 01:47:33;;;;;;;44.67;20.20;;;;;;;0.30;100.00;100622.53;5002044;28;20032;-72
2023/12/03 01:50:05;;;;;;;45.97;19.92;;;;;;;0.30;100.00;100611.59;5001864;28;20032;-72
2023/12/03 01:52:31;;;;;;;49.35;21.70;;;;;;;0.30;100.00;100611.59;5034939;28;20022;-73
2023/12/03 01:54:56;;;;;;;45.22;21.13;;;;;;;0.31;100.00;100602.38;5034436;28;20041;-72
2023/12/03 01:57:23;;;;;;;45.72;21.00;;;;;;;0.30;100.00;100614.34;5034855;28;20045;-72
2023/12/03 01:59:48;;;;;;;49.17;22.15;;;;;;;0.29;100.00;100605.31;5002182;28;20030;-72
2023/12/03 02:02:14;;;;;;;48.50;21.52;;;;;;;0.33;100.00;100611.16;5018535;28;20425;-73
2023/12/03 02:04:39;;;;;;;48.00;21.15;;;;;;;0.34;100.00;100612.84;4988863;28;20033;-73
2023/12/03 02:07:05;;;;;;;45.67;20.88;;;;;;;0.33;100.00;100611.16;5043742;28;20053;-72
2023/12/03 02:09:31;;;;;;;46.33;21.38;;;;;;;0.34;100.00;100610.13;5028980;28;20036;-72
2023/12/03 02:11:56;;;;;;;44.47;20.10;;;;;;;0.35;100.00;100620.78;5014799;28;20382;-72
2023/12/03 02:14:22;;;;;;;43.92;20.67;;;;;;;0.35;100.00;100614.50;5012749;28;20048;-72
2023/12/03 02:16:47;;;;;;;50.47;22.88;;;;;;;0.36;100.00;100627.97;5034344;28;20574;-73
2023/12/03 02:19:16;;;;;;;50.95;22.80;;;;;;;0.37;100.00;100623.31;5001706;28;20113;-72
2023/12/03 02:21:41;;;;;;;45.35;21.20;;;;;;;0.37;100.00;100626.88;5021104;28;20520;-72
2023/12/03 02:24:07;;;;;;;47.60;21.05;;;;;;;0.38;100.00;100619.53;5022677;28;20025;-72
2023/12/03 02:26:32;;;;;;;46.20;21.42;;;;;;;0.38;100.00;100633.19;5014755;28;20036;-72
2023/12/03 02:28:58;;;;;;;47.70;20.92;;;;;;;0.38;100.00;100630.44;4996365;28;20045;-72
2023/12/03 02:31:24;;;;;;;46.05;21.13;;;;;;;0.39;100.00;100632.09;5034494;28;20036;-72
2023/12/03 02:34:02;;;;;;;44.08;21.65;;;;;;;0.40;100.00;100622.88;5017941;28;20025;-72
2023/12/03 02:36:27;;;;;;;51.95;22.58;;;;;;;0.38;100.00;100625.81;5034666;28;20030;-72
2023/12/03 02:38:54;;;;;;;44.97;19.95;;;;;;;0.41;100.00;100630.00;5001386;28;20036;-72
2023/12/03 02:41:20;;;;;;;48.60;22.50;;;;;;;0.39;100.00;100630.22;5034495;28;20071;-72
2023/12/03 02:43:45;;;;;;;50.90;22.20;;;;;;;0.39;100.00;100626.63;5034303;28;20022;-72
2023/12/03 02:46:10;;;;;;;46.88;21.63;;;;;;;0.39;100.00;100621.19;5014661;28;20022;-72
2023/12/03 02:48:36;;;;;;;42.47;20.52;;;;;;;0.39;100.00;100621.19;5015301;28;20078;-72
2023/12/03 02:51:01;;;;;;;48.30;22.88;;;;;;;0.39;100.00;100610.25;5021089;28;20040;-72
2023/12/03 02:53:27;;;;;;;46.20;21.98;;;;;;;0.41;100.00;100610.88;5004710;28;20034;-72
2023/12/03 02:55:52;;;;;;;52.20;23.95;;;;;;;0.38;100.00;100605.84;5023152;28;20037;-73
2023/12/03 02:58:18;;;;;;;51.13;22.67;;;;;;;0.40;100.00;100609.22;5038928;28;20026;-73
2023/12/03 03:00:43;;;;;;;45.78;23.20;;;;;;;0.40;100.00;100606.47;5013094;28;20032;-72
2023/12/03 03:03:09;;;;;;;48.50;21.95;;;;;;;0.39;100.00;100597.44;4986773;28;20029;-72
2023/12/03 03:05:34;;;;;;;49.65;22.80;;;;;;;0.40;100.00;100595.53;4993594;28;20040;-72
2023/12/03 03:07:59;;;;;;;49.92;23.10;;;;;;;0.40;100.00;100599.09;5038503;28;20034;-72
2023/12/03 03:10:25;;;;;;;54.47;23.80;;;;;;;0.39;100.00;100607.50;5022179;28;20040;-72
2023/12/03 03:12:50;;;;;;;50.40;22.02;;;;;;;0.38;100.00;100603.13;5037454;28;20030;-72
2023/12/03 03:15:16;;;;;;;50.97;22.75;;;;;;;0.40;100.00;100606.47;5029040;28;20028;-72
2023/12/03 03:17:41;;;;;;;52.95;24.63;;;;;;;0.38;100.00;100595.75;5038672;28;20060;-72
2023/12/03 03:20:07;;;;;;;49.42;23.17;;;;;;;0.37;100.00;100602.28;5020968;28;20087;-72
2023/12/03 03:22:33;;;;;;;46.30;21.40;;;;;;;0.38;100.00;100592.19;5028852;28;20033;-72
2023/12/03 03:24:58;;;;;;;53.17;23.67;;;;;;;0.37;100.00;100596.00;5004816;28;20030;-73
2023/12/03 03:27:24;;;;;;;53.25;22.08;;;;;;;0.39;100.00;100599.31;5019300;28;20056;-72
2023/12/03 03:29:50;;;;;;;49.42;22.88;;;;;;;0.39;100.00;100599.31;5037172;28;20472;-72
2023/12/03 03:32:15;;;;;;;52.58;23.60;;;;;;;0.36;100.00;100595.16;5050514;28;20029;-72
2023/12/03 03:34:41;;;;;;;49.13;23.05;;;;;;;0.38;100.00;100584.00;4984795;28;20053;-72
2023/12/03 03:37:06;;;;;;;53.70;23.15;;;;;;;0.37;100.00;100585.06;5014191;28;20732;-72
2023/12/03 03:39:31;;;;;;;53.17;23.50;;;;;;;0.37;100.00;100571.41;5018608;28;20044;-72
2023/12/03 03:41:57;;;;;;;47.30;22.52;;;;;;;0.37;100.00;100576.88;5018282;28;20033;-72
2023/12/03 03:44:23;;;;;;;50.90;22.95;;;;;;;0.38;100.00;100581.25;5004418;28;20492;-72
2023/12/03 03:46:48;;;;;;;53.67;23.92;;;;;;;0.36;100.00;100583.38;5036879;28;20025;-72
2023/12/03 03:49:14;;;;;;;55.65;24.08;;;;;;;0.40;100.00;100590.09;5036885;28;20088;-72
2023/12/03 03:51:39;;;;;;;50.97;22.27;;;;;;;0.38;100.00;100587.56;5003908;28;20030;-72
2023/12/03 03:54:05;;;;;;;49.22;23.05;;;;;;;0.40;100.00;100590.09;5036477;28;20033;-72
2023/12/03 03:56:30;;;;;;;48.03;22.63;;;;;;;0.39;100.00;100582.94;5037275;28;20648;-72
2023/12/03 03:58:56;;;;;;;52.38;22.98;;;;;;;0.41;100.00;100578.06;5032403;28;20030;-72
2023/12/03 04:01:21;;;;;;;59.42;25.50;;;;;;;0.40;100.00;100581.88;5050319;28;20103;-72
2023/12/03 04:03:46;;;;;;;52.25;23.45;;;;;;;0.39;100.00;100580.19;5029768;28;20026;-72
2023/12/03 04:06:12;;;;;;;51.22;23.30;;;;;;;0.40;100.00;100579.97;5030101;28;20052;-72
2023/12/03 04:08:38;;;;;;;49.15;23.33;;;;;;;0.41;100.00;100578.06;5000187;28;20034;-72
2023/12/03 04:11:04;;;;;;;53.45;23.38;;;;;;;0.40;100.00;100582.72;5007675;28;20029;-72
2023/12/03 04:13:30;;;;;;;55.25;24.60;;;;;;;0.40;100.00;100579.97;5045748;28;20030;-72
2023/12/03 04:15:56;;;;;;;51.03;23.75;;;;;;;0.39;100.00;100572.00;5011019;28;20026;-72
2023/12/03 04:18:22;;;;;;;53.17;24.77;;;;;;;0.40;100.00;100570.94;5036185;28;20107;-72
2023/12/03 04:20:47;;;;;;;50.17;23.52;;;;;;;0.41;100.00;100573.44;4984767;28;20026;-72
2023/12/03 04:23:13;;;;;;;51.65;22.83;;;;;;;0.41;100.00;100580.81;5043834;28;20055;-72
2023/12/03 04:25:59;;;;;;;55.65;24.15;;;;;;;0.41;100.00;100569.88;5017211;28;20112;-73
2023/12/03 04:28:24;;;;;;;55.53;24.02;;;;;;;0.42;100.00;100571.56;5001799;28;20041;-72
2023/12/03 04:30:50;;;;;;;58.10;24.27;;;;;;;0.41;100.00;100576.19;5036031;28;20036;-72
2023/12/03 04:33:15;;;;;;;54.67;24.75;;;;;;;0.41;100.00;100569.88;4999981;28;20100;-72
2023/12/03 04:35:41;;;;;;;58.05;24.27;;;;;;;0.41;100.00;100565.25;5003051;28;20033;-72
2023/12/03 04:38:06;;;;;;;51.47;23.58;;;;;;;0.43;100.00;100563.13;5015906;28;20038;-72
2023/12/03 04:40:32;;;;;;;56.92;25.00;;;;;;;0.41;100.00;100561.69;5002964;28;20036;-72
2023/12/03 04:42:57;;;;;;;56.00;24.90;;;;;;;0.43;100.00;100573.22;5020858;28;20030;-72
2023/12/03 04:45:23;;;;;;;54.70;24.92;;;;;;;0.43;100.00;100582.25;5035636;28;20037;-72
2023/12/03 04:47:48;;;;;;;51.97;23.77;;;;;;;0.44;100.00;100564.78;5035867;28;20080;-72
2023/12/03 04:50:14;;;;;;;58.75;24.90;;;;;;;0.43;100.00;100557.66;5002827;28;20509;-72
2023/12/03 04:52:39;;;;;;;48.85;23.13;;;;;;;0.46;100.00;100555.56;5002458;28;20029;-72
2023/12/03 04:55:05;;;;;;;54.47;24.98;;;;;;;0.47;100.00;100551.75;5018983;28;20038;-72
2023/12/03 04:57:52;;;;;;;56.08;24.02;;;;;;;0.48;100.00;100556.16;5036322;28;20548;-73
2023/12/03 05:00:18;;;;;;;57.85;24.83;;;;;;;0.47;100.00;100559.94;5028064;28;20113;-72
2023/12/03 05:02:45;;;;;;;51.05;24.02;;;;;;;0.48;100.00;100564.38;5029829;28;20052;-72
2023/12/03 05:05:10;;;;;;;59.40;25.23;;;;;;;0.51;100.00;100555.72;5022251;28;20061;-72
2023/12/03 05:07:36;;;;;;;64.95;27.45;;;;;;;0.51;100.00;100558.44;5035469;28;20056;-72
2023/12/03 05:10:01;;;;;;;54.67;24.27;;;;;;;0.48;100.00;100554.28;5018742;28;20037;-72
2023/12/03 05:12:43;;;;;;;59.20;25.73;;;;;;;0.52;100.00;100552.75;4999516;28;20041;-73
2023/12/03 05:15:11;;;;;;;57.47;24.90;;;;;;;0.51;100.00;100556.53;5007693;28;20044;-72
2023/12/03 05:17:37;;;;;;;55.17;24.20;;;;;;;0.54;100.00;100553.34;5002142;28;20065;-72
2023/12/03 05:20:03;;;;;;;51.15;23.95;;;;;;;0.54;100.00;100553.34;5018719;28;20037;-72
2023/12/03 05:22:28;;;;;;;56.72;24.58;;;;;;;0.54;100.00;100556.09;5048413;28;20029;-72
2023/12/03 05:24:54;;;;;;;58.22;24.73;;;;;;;0.56;100.00;100551.25;5035053;28;20030;-72
2023/12/03 05:27:23;;;;;;;56.40;23.67;;;;;;;0.58;100.00;100549.09;5034481;28;20041;-72
2023/12/03 05:29:49;;;;;;;53.75;23.40;;;;;;;0.58;100.00;100543.63;5016813;28;20265;-72
2023/12/03 05:32:14;;;;;;;52.28;24.17;;;;;;;0.58;100.00;100554.56;5018814;28;20095;-72
2023/12/03 05:34:44;;;;;;;53.90;25.00;;;;;;;0.61;100.00;100550.53;5035155;28;20034;-72
2023/12/03 05:37:09;;;;;;;53.67;25.15;;;;;;;0.61;100.00;100545.94;5001317;28;20026;-72
2023/12/03 05:39:36;;;;;;;57.60;24.25;;;;;;;0.62;100.00;100546.75;5015355;28;20038;-72
2023/12/03 05:42:02;;;;;;;55.00;24.35;;;;;;;0.62;100.00;100539.38;5006094;28;20034;-72
2023/12/03 05:44:28;;;;;;;56.67;25.20;;;;;;;0.64;100.00;100539.16;5015541;28;20040;-72
2023/12/03 05:46:53;;;;;;;56.03;24.58;;;;;;;0.65;100.00;100544.41;5013751;28;20635;-72
2023/12/03 05:49:19;;;;;;;57.17;25.23;;;;;;;0.67;100.00;100544.19;5060686;28;20075;-72
2023/12/03 05:51:44;;;;;;;59.83;26.48;;;;;;;0.69;100.00;100543.94;5038884;28;20048;-72
2023/12/03 05:54:10;;;;;;;53.08;24.20;;;;;;;0.70;100.00;100540.13;5018158;28;20030;-72
2023/12/03 05:56:35;;;;;;;54.00;24.75;;;;;;;0.71;100.00;100542.66;5001851;28;20037;-72
2023/12/03 05:59:01;;;;;;;52.28;23.85;;;;;;;0.72;100.00;100533.38;5018356;28;20037;-72
2023/12/03 06:01:26;;;;;;;51.28;24.15;;;;;;;0.75;100.00;100534.81;5036513;28;20040;-73
2023/12/03 06:03:52;;;;;;;56.03;24.90;;;;;;;0.74;100.00;100536.72;5027150;28;20041;-72
2023/12/03 06:06:17;;;;;;;62.15;24.98;;;;;;;0.76;100.00;100533.78;5012874;28;20030;-72
2023/12/03 06:08:43;;;;;;;52.25;24.02;;;;;;;0.77;100.00;100540.91;5018180;28;20038;-72
2023/12/03 06:11:09;;;;;;;55.20;25.08;;;;;;;0.80;100.00;100545.91;5034629;28;20032;-72
2023/12/03 06:13:34;;;;;;;54.53;24.33;;;;;;;0.81;100.00;100553.91;5018408;28;20036;-72
2023/12/03 06:15:59;;;;;;;54.60;25.52;;;;;;;0.82;100.00;100546.53;5035729;28;20030;-73
2023/12/03 06:18:26;;;;;;;56.92;26.20;;;;;;;0.85;100.00;100549.63;5036441;28;20056;-72
2023/12/03 06:20:52;;;;;;;60.00;25.92;;;;;;;0.84;100.00;100547.97;5034595;28;20029;-72
2023/12/03 06:23:17;;;;;;;55.05;26.48;;;;;;;0.87;100.00;100550.25;5040158;28;20033;-72
2023/12/03 06:25:43;;;;;;;58.60;26.25;;;;;;;0.89;100.00;100544.53;5033224;28;20382;-73
2023/12/03 06:28:08;;;;;;;54.13;23.98;;;;;;;0.91;100.00;100542.41;5020615;28;20027;-72
2023/12/03 06:30:34;;;;;;;55.55;24.80;;;;;;;0.92;100.00;100543.22;5041694;28;20034;-72
2023/12/03 06:33:03;;;;;;;51.72;23.90;;;;;;;0.91;100.00;100528.72;5023414;28;20025;-73
2023/12/03 06:35:28;;;;;;;51.63;24.40;;;;;;;0.93;100.00;100537.56;5021726;28;20112;-72
2023/12/03 06:37:54;;;;;;;49.92;23.02;;;;;;;0.96;100.00;100541.72;5018123;28;20038;-72
2023/12/03 06:40:19;;;;;;;52.65;24.00;;;;;;;0.95;100.00;100538.16;5006156;28;20501;-72
2023/12/03 06:42:44;;;;;;;55.95;24.13;;;;;;;0.98;100.00;100537.69;5032736;28;20025;-72
2023/12/03 06:45:11;;;;;;;52.50;23.48;;;;;;;0.97;100.00;100535.19;5020430;28;20033;-72
2023/12/03 06:47:37;;;;;;;52.67;24.42;;;;;;;1.00;100.00;100532.81;5002060;28;20073;-73
2023/12/03 06:50:03;;;;;;;56.88;24.27;;;;;;;1.01;100.00;100528.19;5021431;28;20060;-73
2023/12/03 06:52:28;;;;;;;54.13;25.25;;;;;;;1.02;100.00;100533.41;5022426;28;20060;-72
2023/12/03 06:54:54;;;;;;;51.38;23.83;;;;;;;1.01;100.00;100528.19;5005010;28;20040;-72
2023/12/03 06:57:19;;;;;;;49.53;22.85;;;;;;;1.03;100.00;100524.16;5021521;28;20029;-72
2023/12/03 06:59:44;;;;;;;50.38;23.33;;;;;;;1.03;100.00;100529.66;5004773;28;20072;-72
2023/12/03 07:02:10;;;;;;;51.85;24.25;;;;;;;1.04;100.00;100519.53;5030023;28;20029;-72
2023/12/03 07:04:35;;;;;;;50.60;23.92;;;;;;;1.06;100.00;100526.44;5030586;28;20030;-72
2023/12/03 07:07:01;;;;;;;52.05;23.88;;;;;;;1.07;100.00;100519.06;5002375;28;20025;-72
2023/12/03 07:09:26;;;;;;;49.80;23.85;;;;;;;1.08;100.00;100513.34;5011586;28;20096;-72
2023/12/03 07:11:52;;;;;;;51.15;23.75;;;;;;;1.07;100.00;100495.28;5018065;28;20042;-72
2023/12/03 07:14:18;;;;;;;54.25;25.30;;;;;;;1.07;100.00;100503.47;5020576;28;20121;-73
2023/12/03 07:16:43;;;;;;;54.03;24.77;;;;;;;1.09;100.00;100500.53;5036897;28;20041;-72
2023/12/03 07:19:09;;;;;;;52.88;23.60;;;;;;;1.08;100.00;100512.53;5045540;28;20039;-72
2023/12/03 07:21:51;;;;;;;51.45;23.65;;;;;;;1.08;100.00;100507.88;5004370;28;20025;-73
2023/12/03 07:24:18;;;;;;;50.10;23.98;;;;;;;1.08;100.00;100507.88;5024001;28;20034;-73
2023/12/03 07:26:50;;;;;;;52.25;23.77;;;;;;;1.09;100.00;100508.72;4992273;28;20080;-73
2023/12/03 07:29:19;;;;;;;47.85;23.00;;;;;;;1.07;100.00;100506.22;5030577;28;20117;-73
2023/12/03 07:31:48;;;;;;;50.97;23.35;;;;;;;1.09;100.00;100501.34;5031102;28;20083;-73
2023/12/03 07:34:15;;;;;;;49.15;23.00;;;;;;;1.09;100.00;100517.78;5007505;28;20375;-73
2023/12/03 07:36:41;;;;;;;50.58;23.08;;;;;;;1.10;100.00;100510.41;5007191;28;20045;-73
2023/12/03 07:39:11;;;;;;;49.40;22.15;;;;;;;1.09;100.00;100520.50;5004567;28;20042;-73
2023/12/03 07:41:40;;;;;;;51.17;25.13;;;;;;;1.09;100.00;100523.25;5004998;28;20049;-73
2023/12/03 07:44:06;;;;;;;50.88;22.55;;;;;;;1.11;100.00;100520.25;5006093;28;20553;-73
2023/12/03 07:46:32;;;;;;;46.75;23.00;;;;;;;1.11;100.00;100521.13;5047089;28;20025;-72
2023/12/03 07:48:58;;;;;;;48.22;23.00;;;;;;;1.13;100.00;100511.84;5033532;28;20056;-72
2023/12/03 07:51:24;;;;;;;45.90;21.77;;;;;;;1.14;100.00;100513.50;5020270;28;20478;-72
2023/12/03 07:53:49;;;;;;;52.45;23.65;;;;;;;1.20;100.00;100518.03;5019978;28;20036;-73
2023/12/03 07:56:14;;;;;;;50.30;23.40;;;;;;;1.20;100.00;100523.50;5016946;28;20434;-72
2023/12/03 07:58:40;;;;;;;46.28;21.70;;;;;;;1.21;100.00;100520.53;4986285;28;20397;-72
2023/12/03 08:01:06;;;;;;;47.20;22.33;;;;;;;1.25;100.00;100521.75;5017079;28;20108;-73
2023/12/03 08:03:31;;;;;;;52.63;23.02;;;;;;;1.27;100.00;100529.72;5015312;28;20152;-72
2023/12/03 08:05:58;;;;;;;53.13;22.83;;;;;;;1.29;100.00;100522.97;5028201;28;20021;-72
2023/12/03 08:08:23;;;;;;;45.50;20.92;;;;;;;1.31;100.00;100523.56;5036078;28;20086;-72
2023/12/03 08:10:49;;;;;;;52.10;23.42;;;;;;;1.35;100.00;100526.66;5019917;28;20393;-73
2023/12/03 08:13:14;;;;;;;48.22;21.83;;;;;;;1.35;100.00;100518.47;5032945;28;20030;-72
2023/12/03 08:15:39;;;;;;;51.70;23.20;;;;;;;1.38;100.00;100515.25;5016589;28;20034;-72
2023/12/03 08:18:05;;;;;;;53.95;24.85;;;;;;;1.42;100.00;100518.34;5018093;28;20053;-73
2023/12/03 08:20:30;;;;;;;43.88;21.35;;;;;;;1.42;100.00;100504.66;4987200;28;20029;-72
2023/12/03 08:22:56;;;;;;;51.60;23.20;;;;;;;1.45;100.00;100512.41;5010710;28;20033;-72
2023/12/03 08:25:21;;;;;;;48.65;23.05;;;;;;;1.47;100.00;100507.53;5020386;28;20036;-72
2023/12/03 08:27:47;;;;;;;46.67;22.48;;;;;;;1.49;100.00;100503.50;5011576;28;20033;-72
2023/12/03 08:30:13;;;;;;;43.45;21.10;;;;;;;1.53;100.00;100507.44;5046456;28;20021;-72
2023/12/03 08:32:38;;;;;;;44.90;21.65;;;;;;;1.56;100.00;100511.59;5018709;28;20033;-72
2023/12/03 08:35:04;;;;;;;47.55;21.48;;;;;;;1.58;100.00;100509.47;5019689;28;20029;-73
2023/12/03 08:37:29;;;;;;;52.30;22.75;;;;;;;1.63;100.00;100525.19;5023321;28;20474;-73
2023/12/03 08:39:55;;;;;;;44.83;21.75;;;;;;;1.66;100.00;100517.34;4982317;28;20029;-73
2023/12/03 08:42:21;;;;;;;49.78;23.08;;;;;;;1.69;100.00;100516.03;5017811;28;20033;-73
2023/12/03 08:44:46;;;;;;;49.67;21.45;;;;;;;1.74;100.00;100513.44;5002911;28;20037;-73
2023/12/03 08:47:13;;;;;;;47.17;20.90;;;;;;;1.76;100.00;100509.41;5018373;28;20106;-73
2023/12/03 08:49:39;;;;;;;51.30;23.15;;;;;;;1.81;100.00;100508.66;5019102;28;20475;-72
2023/12/03 08:52:04;;;;;;;44.22;21.35;;;;;;;1.84;100.00;100505.47;5031540;28;20045;-73
2023/12/03 08:54:32;;;;;;;47.90;22.02;;;;;;;1.90;100.00;100500.97;5042673;28;20087;-73
2023/12/03 08:56:57;;;;;;;55.05;24.23;;;;;;;1.94;100.00;100504.88;5018855;28;20033;-73
2023/12/03 08:59:24;;;;;;;47.58;22.42;;;;;;;1.97;100.00;100504.41;5027590;28;20034;-73
2023/12/03 09:01:50;;;;;;;51.00;23.15;;;;;;;2.00;100.00;100503.91;5019042;28;20033;-72
2023/12/03 09:04:15;;;;;;;49.67;22.25;;;;;;;2.05;100.00;100498.56;4991804;28;20040;-73
2023/12/03 09:06:41;;;;;;;48.85;23.52;;;;;;;2.11;100.00;100496.78;5015603;28;20040;-72
2023/12/03 09:09:07;;;;;;;51.00;22.25;;;;;;;2.13;100.00;100495.47;5033115;28;20041;-73
2023/12/03 09:11:35;;;;;;;51.45;22.25;;;;;;;2.20;100.00;100500.81;4985884;28;20064;-72
2023/12/03 09:14:10;;;;;;;51.70;23.33;;;;;;;2.26;100.00;100488.06;5018878;28;20029;-73
2023/12/03 09:16:36;;;;;;;49.63;22.02;;;;;;;2.34;100.00;100495.94;5017271;28;20046;-73
2023/12/03 09:19:01;;;;;;;48.17;21.88;;;;;;;2.36;100.00;100493.78;5024388;28;20026;-73
2023/12/03 09:21:27;;;;;;;45.45;21.67;;;;;;;2.41;100.00;100497.47;4998525;28;20033;-73
2023/12/03 09:23:54;;;;;;;46.85;20.55;;;;;;;2.49;100.00;100495.44;5017842;28;20144;-73
2023/12/03 09:26:19;;;;;;;43.40;21.13;;;;;;;2.54;100.00;100495.56;5002679;28;20021;-73
2023/12/03 09:28:45;;;;;;;41.58;20.02;;;;;;;2.60;100.00;100489.94;5015124;28;20036;-73
2023/12/03 09:31:10;;;;;;;42.58;20.25;;;;;;;2.67;100.00;100490.66;4985794;28;20021;-73
2023/12/03 09:33:36;;;;;;;41.90;21.08;;;;;;;2.75;100.00;100481.19;5002091;28;20021;-73
2023/12/03 09:36:02;;;;;;;46.28;20.88;;;;;;;2.83;100.00;100483.53;5018549;28;20044;-73
2023/12/03 09:38:27;;;;;;;43.67;20.30;;;;;;;2.91;100.00;100491.38;4998092;28;20037;-74
2023/12/03 09:40:55;;;;;;;43.22;20.15;;;;;;;3.04;100.00;100494.94;5001324;28;20025;-74
2023/12/03 09:43:20;;;;;;;40.70;19.23;;;;;;;3.13;100.00;100474.25;5034952;28;20104;-74
2023/12/03 09:45:46;;;;;;;43.70;18.88;;;;;;;3.21;100.00;100479.34;5034029;28;20032;-73
2023/12/03 09:48:12;;;;;;;43.22;19.95;;;;;;;3.30;100.00;100483.34;5037654;28;20103;-74
2023/12/03 09:50:39;;;;;;;37.92;19.23;;;;;;;3.39;100.00;100480.19;5002167;28;20474;-74
2023/12/03 09:53:06;;;;;;;46.58;21.15;;;;;;;3.45;100.00;100491.00;4985768;28;20112;-74
2023/12/03 09:55:31;;;;;;;42.30;19.80;;;;;;;3.53;100.00;100482.38;5034499;28;20033;-74
2023/12/03 09:57:57;;;;;;;40.60;18.77;;;;;;;3.61;100.00;100474.81;5001639;28;20481;-74
2023/12/03 10:00:23;;;;;;;41.08;18.70;;;;;;;3.69;100.00;100475.25;5022542;28;20037;-74
2023/12/03 10:02:50;;;;;;;42.97;18.70;;;;;;;3.77;100.00;100482.25;5005885;28;20029;-70
2023/12/03 10:05:16;;;;;;;42.35;20.27;;;;;;;3.87;100.00;100470.56;5024714;28;20040;-74
2023/12/03 10:07:41;;;;;;;45.15;20.48;;;;;;;3.94;100.00;100474.00;5002329;28;20048;-74
2023/12/03 10:10:08;;;;;;;44.95;20.23;;;;;;;4.04;100.00;100476.91;5035441;28;20045;-74
2023/12/03 10:12:44;;;;;;;41.05;19.15;;;;;;;4.12;100.00;100478.38;5012952;28;20022;-74
2023/12/03 10:15:34;;;;;;;39.85;18.92;;;;;;;4.22;100.00;100479.34;5002061;28;20038;-74
2023/12/03 10:18:23;;;;;;;40.58;18.88;;;;;;;4.34;100.00;100471.00;4996057;28;20055;-74
2023/12/03 10:21:16;;;;;;;39.90;19.55;;;;;;;4.46;100.00;100459.91;5059567;28;20059;-74
2023/12/03 10:24:09;;;;;;;36.45;17.80;;;;;;;4.57;100.00;100464.44;5031874;28;20088;-74
2023/12/03 10:26:51;;;;;;;36.17;16.77;;;;;;;4.68;100.00;100460.75;5022169;28;20124;-74
2023/12/03 10:36:03;;;;;;;39.17;18.67;;;;;;;5.03;100.00;100459.47;5036277;28;20045;-74
2023/12/03 10:38:55;;;;;;;31.83;16.77;;;;;;;5.16;100.00;100458.25;5014189;28;20056;-74
2023/12/03 10:41:24;;;;;;;36.13;16.65;;;;;;;5.24;100.00;100462.47;5018441;28;20037;-74
2023/12/03 10:44:09;;;;;;;34.15;18.05;;;;;;;5.34;100.00;100454.28;5033810;28;20037;-74
2023/12/03 10:46:41;;;;;;;35.25;17.40;;;;;;;5.45;100.00;100447.78;5016527;28;20040;-74
2023/12/03 10:49:12;;;;;;;30.15;15.90;;;;;;;5.57;100.00;100440.19;5030222;28;20113;-74
2023/12/03 10:51:47;;;;;;;31.55;17.05;;;;;;;5.71;100.00;100436.97;5033295;28;20026;-74
2023/12/03 10:54:13;;;;;;;33.00;16.05;;;;;;;5.81;100.00;100437.06;5037584;28;20034;-74
2023/12/03 10:56:40;;;;;;;32.75;16.80;;;;;;;5.91;100.00;100434.38;5038912;28;20052;-74
2023/12/03 10:59:13;;;;;;;35.50;17.38;;;;;;;6.00;100.00;100421.78;5018938;28;20094;-74
2023/12/03 11:01:41;;;;;;;33.70;16.00;;;;;;;6.14;100.00;100421.31;5023388;28;20030;-74
2023/12/03 11:04:34;;;;;;;31.25;16.05;;;;;;;6.23;100.00;100417.78;4995814;28;20101;-74
2023/12/03 11:07:00;;;;;;;32.55;14.70;;;;;;;6.33;100.00;100407.91;5038328;28;20168;-73
2023/12/03 11:09:26;;;;;;;26.05;13.80;;;;;;;6.39;100.00;100406.84;5039586;28;20057;-74
2023/12/03 11:11:52;;;;;;;34.22;14.80;;;;;;;6.44;100.00;100404.09;5017080;28;20069;-74
2023/12/03 11:14:19;;;;;;;29.77;13.80;;;;;;;6.47;100.00;100398.88;5029567;28;20065;-74